Weather History for Galax, VA

Change the Weather History Date:

Saturday, February 15, 2014

  Actual Average (KBLF) Record (KBLF)
Temperature  
Mean Temperature 28 °F 37 °F  
Max Temperature 37 °F 46 °F 72 °F (1990)
Min Temperature 19 °F 29 °F 2 °F (1963)
Degree Days  
Heating Degree Days 37 28  
Month to date heating degree days 434  
Since 1 July heating degree days 3154  
Cooling Degree Days 0 0  
Month to date cooling degree days 0  
Year to date cooling degree days 0  
Moisture  
Dew Point 17 °F    
Average Humidity 64    
Maximum Humidity 87    
Minimum Humidity 50    
Precipitation  
Precipitation 0.00 in 0.10 in 1.85 in (2003)
Month to date precipitation 1.44  
Year to date precipitation 4.34  
Snow  
Snow 0.00 in - - ()
Month to date snowfall  
Since 1 July snowfall  
Snow Depth -    
Sea Level Pressure  
Sea Level Pressure 29.77 in    
Wind  
Wind Speed 12 mph (WNW)    
Max Wind Speed 31 mph    
Max Gust Speed 44 mph    
Visibility 9 miles    
Events Snow    
T = Trace of Precipitation, MM = Missing Value Source: NWS Daily Summary

Daily Weather History Graph

Daily Weather History Graph

Search for Another Location

Airport:

Trip Planner

Search our weather history database for the weather conditions in past years. The results will help you decide how hot, cold, wet, or windy it might be!

Date:

Astronomy

Feb. 15, 2014 Rise Set
Actual Time 7:11 AM EST 6:03 PM EST
Civil Twilight 6:45 AM EST 6:30 PM EST
Nautical Twilight 6:14 AM EST 7:00 PM EST
Astronomical Twilight 5:44 AM EST 7:30 PM EST
Moon 6:59 PM EST (2/15) 7:11 AM EST (2/15)
Length of Visible Light 11h 45m
Length of Day
10h 52m
Full, 100% of the Moon is Illuminated
Feb 15
Full
Feb 22
Last Quarter
Mar 1
New
Mar 8
First Quarter
Mar 16
Full

Hourly Weather History & Observations

Time (EST) Temp. Windchill Dew Point Humidity Pressure Visibility Wind Dir Wind Speed Gust Speed Precip Events Conditions
12:15 AM 37.4 °F - 24.8 °F 60% 29.63 in 10.0 mi Calm Calm - N/A   Scattered Clouds
12:35 AM 35.6 °F 32.8 °F 26.6 °F 70% 29.62 in 10.0 mi SE 3.5 mph - N/A   Scattered Clouds
12:55 AM 37.4 °F 34.9 °F 26.6 °F 65% 29.61 in 10.0 mi SE 3.5 mph - N/A   Clear
1:15 AM 37.4 °F 34.9 °F 26.6 °F 65% 29.59 in 10.0 mi ESE 3.5 mph - N/A   Clear
1:35 AM 37.4 °F 33.8 °F 26.6 °F 65% 29.58 in 10.0 mi SSE 4.6 mph - N/A   Scattered Clouds
1:55 AM 37.4 °F 32.8 °F 26.6 °F 65% 29.58 in 10.0 mi South 5.8 mph - N/A   Mostly Cloudy
2:15 AM 37.4 °F 34.9 °F 26.6 °F 65% 29.56 in 10.0 mi SSE 3.5 mph - N/A   Mostly Cloudy
2:35 AM 37.4 °F 33.8 °F 26.6 °F 65% 29.55 in 10.0 mi South 4.6 mph - N/A   Scattered Clouds
2:55 AM 37.4 °F 32.8 °F 26.6 °F 65% 29.55 in 10.0 mi South 5.8 mph - N/A   Clear
3:15 AM 37.4 °F 32.8 °F 26.6 °F 65% 29.55 in 10.0 mi South 5.8 mph - N/A   Clear
3:35 AM 37.4 °F 32.8 °F 28.4 °F 70% 29.55 in 10.0 mi SSW 5.8 mph - N/A   Clear
3:55 AM 37.4 °F 33.8 °F 28.4 °F 70% 29.54 in 10.0 mi WSW 4.6 mph - N/A   Scattered Clouds
4:15 AM 35.6 °F 29.2 °F 28.4 °F 75% 29.55 in 7.0 mi NW 8.1 mph - N/A Snow Light Snow
4:35 AM 33.8 °F 27.0 °F 28.4 °F 81% 29.54 in 4.0 mi NW 8.1 mph - N/A Snow Light Snow
4:55 AM 33.8 °F 29.6 °F 30.2 °F 87% 29.55 in 2.5 mi NNW 4.6 mph - N/A Snow Light Snow
5:15 AM 33.8 °F 29.6 °F 30.2 °F 87% 29.55 in 2.0 mi NNW 4.6 mph - N/A Snow Light Snow
5:35 AM 33.8 °F 28.6 °F 30.2 °F 87% 29.56 in 3.0 mi NW 5.8 mph - N/A Snow Light Snow
5:55 AM 33.8 °F 25.8 °F 30.2 °F 87% 29.56 in 4.0 mi WNW 10.4 mph - N/A Snow Light Snow
6:15 AM 33.8 °F 23.9 °F 30.2 °F 87% 29.57 in 3.0 mi WNW 15.0 mph 18.4 mph N/A Snow Light Snow
6:35 AM 33.8 °F 24.8 °F 30.2 °F 87% 29.57 in 4.0 mi NW 12.7 mph 18.4 mph N/A Snow Light Snow
6:55 AM 33.8 °F 23.5 °F 28.4 °F 81% 29.59 in 10.0 mi WNW 16.1 mph 24.2 mph N/A Snow Light Snow
7:15 AM 33.8 °F 23.5 °F 28.4 °F 81% 29.59 in 10.0 mi NW 16.1 mph 20.7 mph N/A Snow Light Snow
7:35 AM 33.8 °F 23.2 °F 26.6 °F 75% 29.60 in 10.0 mi NW 17.3 mph 28.8 mph N/A   Mostly Cloudy
7:55 AM 32.0 °F 19.5 °F 24.8 °F 75% 29.63 in 10.0 mi NW 21.9 mph 35.7 mph N/A   Mostly Cloudy
8:15 AM 30.2 °F 16.8 °F 23.0 °F 75% 29.65 in 10.0 mi NW 23.0 mph 31.1 mph N/A   Mostly Cloudy
8:35 AM 30.2 °F 16.2 °F 21.2 °F 69% 29.66 in 10.0 mi NW 25.3 mph 33.4 mph N/A   Overcast
8:55 AM 30.2 °F 18.5 °F 21.2 °F 69% 29.67 in 10.0 mi NW 17.3 mph 35.7 mph N/A   Overcast
9:15 AM 28.4 °F 13.0 °F 21.2 °F 74% 29.68 in 10.0 mi WNW 28.8 mph 38.0 mph N/A   Overcast
9:35 AM 28.4 °F 14.4 °F 19.4 °F 69% 29.70 in 10.0 mi NW 23.0 mph 34.5 mph N/A   Overcast
9:55 AM 26.6 °F 12.0 °F 19.4 °F 74% 29.71 in 10.0 mi WNW 23.0 mph 31.1 mph N/A   Overcast
10:15 AM 26.6 °F 10.3 °F 17.6 °F 69% 29.72 in 10.0 mi NW 29.9 mph 35.7 mph N/A   Overcast
10:35 AM 26.6 °F 12.0 °F 17.6 °F 69% 29.73 in 10.0 mi NW 23.0 mph 36.8 mph N/A   Mostly Cloudy
10:55 AM 24.8 °F 8.1 °F 15.8 °F 69% 29.75 in 10.0 mi WNW 28.8 mph 34.5 mph N/A   Overcast
11:15 AM 24.8 °F 7.6 °F 12.2 °F 59% 29.76 in 10.0 mi WNW 31.1 mph 39.1 mph N/A   Overcast
11:35 AM 24.8 °F 9.0 °F 12.2 °F 59% 29.78 in 10.0 mi WNW 25.3 mph 32.2 mph N/A   Mostly Cloudy
11:55 AM 24.8 °F 10.0 °F 10.4 °F 54% 29.78 in 10.0 mi WNW 21.9 mph 34.5 mph N/A   Scattered Clouds
12:15 PM 24.8 °F 8.7 °F 10.4 °F 54% 29.78 in 10.0 mi WNW 26.5 mph 33.4 mph N/A   Scattered Clouds
12:35 PM 24.8 °F 8.7 °F 10.4 °F 54% 29.79 in 10.0 mi NW 26.5 mph 43.7 mph N/A   Clear
12:55 PM 24.8 °F 7.6 °F 8.6 °F 50% 29.80 in 10.0 mi WNW 31.1 mph 39.1 mph N/A   Clear
1:15 PM 24.8 °F 10.0 °F 8.6 °F 50% 29.80 in 10.0 mi NW 21.9 mph 34.5 mph N/A   Clear
1:35 PM 24.8 °F 9.6 °F 8.6 °F 50% 29.80 in 10.0 mi West 23.0 mph 29.9 mph N/A   Clear
1:55 PM 24.8 °F 11.1 °F 10.4 °F 54% 29.82 in 10.0 mi West 18.4 mph 34.5 mph N/A   Clear
2:15 PM 24.8 °F 9.0 °F 8.6 °F 50% 29.83 in 10.0 mi WNW 25.3 mph 38.0 mph N/A   Clear
2:35 PM 24.8 °F 9.3 °F 10.4 °F 54% 29.84 in 10.0 mi WNW 24.2 mph 35.7 mph N/A   Clear
2:55 PM 24.8 °F 10.7 °F 10.4 °F 54% 29.86 in 10.0 mi WNW 19.6 mph 32.2 mph N/A   Clear
3:15 PM 24.8 °F 11.5 °F 10.4 °F 54% 29.86 in 10.0 mi WNW 17.3 mph 28.8 mph N/A   Clear
3:35 PM 24.8 °F 10.7 °F 8.6 °F 50% 29.87 in 10.0 mi WNW 19.6 mph 25.3 mph N/A   Clear
3:55 PM 24.8 °F 10.3 °F 8.6 °F 50% 29.87 in 10.0 mi WNW 20.7 mph 27.6 mph N/A   Clear
4:15 PM 24.8 °F 11.5 °F 8.6 °F 50% 29.87 in 10.0 mi West 17.3 mph 23.0 mph N/A   Clear
4:35 PM 24.8 °F 12.9 °F 8.6 °F 50% 29.88 in 10.0 mi WNW 13.8 mph 29.9 mph N/A   Clear
4:55 PM 24.8 °F 11.1 °F 8.6 °F 50% 29.89 in 10.0 mi WNW 18.4 mph 25.3 mph N/A   Clear
5:15 PM 24.8 °F 10.0 °F 8.6 °F 50% 29.90 in 10.0 mi WNW 21.9 mph 31.1 mph N/A   Clear
5:35 PM 23.0 °F 8.3 °F 8.6 °F 54% 29.92 in 10.0 mi WNW 19.6 mph 27.6 mph N/A   Clear
5:55 PM 23.0 °F 10.1 °F 8.6 °F 54% 29.93 in 10.0 mi WNW 15.0 mph 21.9 mph N/A   Clear
6:15 PM 21.2 °F 8.9 °F 8.6 °F 58% 29.95 in 10.0 mi WNW 12.7 mph 18.4 mph N/A   Clear
6:35 PM 21.2 °F 6.4 °F 8.6 °F 58% 29.95 in 10.0 mi WNW 18.4 mph 28.8 mph N/A   Clear
6:55 PM 21.2 °F 5.6 °F 8.6 °F 58% 29.95 in 10.0 mi WNW 20.7 mph 25.3 mph N/A   Clear
7:15 PM 21.2 °F 4.9 °F 8.6 °F 58% 29.95 in 10.0 mi WNW 23.0 mph 29.9 mph N/A   Clear
7:35 PM 21.2 °F 5.6 °F 8.6 °F 58% 29.96 in 10.0 mi WNW 20.7 mph 29.9 mph N/A   Clear
7:55 PM 21.2 °F 6.8 °F 8.6 °F 58% 29.97 in 10.0 mi WNW 17.3 mph 20.7 mph N/A   Clear
8:15 PM 21.2 °F 7.3 °F 8.6 °F 58% 29.97 in 10.0 mi WNW 16.1 mph 23.0 mph N/A   Clear
8:35 PM 21.2 °F 7.3 °F 8.6 °F 58% 29.96 in 10.0 mi WNW 16.1 mph 24.2 mph N/A   Clear
8:55 PM 21.2 °F 7.8 °F 8.6 °F 58% 29.97 in 10.0 mi WNW 15.0 mph 20.7 mph N/A   Clear
9:15 PM 21.2 °F 7.3 °F 8.6 °F 58% 29.97 in 10.0 mi WNW 16.1 mph 24.2 mph N/A   Clear
9:35 PM 21.2 °F 11.7 °F 8.6 °F 58% 29.97 in 10.0 mi WNW 8.1 mph - N/A   Clear
9:55 PM 21.2 °F 10.9 °F 8.6 °F 58% 29.99 in 10.0 mi West 9.2 mph - N/A   Clear
10:15 PM 19.4 °F 14.3 °F 10.4 °F 68% 29.99 in 10.0 mi West 3.5 mph - N/A   Clear
10:35 PM 19.4 °F 10.4 °F 10.4 °F 68% 29.99 in 10.0 mi WNW 6.9 mph - N/A   Clear
10:55 PM 19.4 °F 8.6 °F 10.4 °F 68% 30.00 in 10.0 mi WNW 9.2 mph - N/A   Clear
11:15 PM 19.4 °F 10.4 °F 10.4 °F 68% 29.98 in 10.0 mi WNW 6.9 mph - N/A   Clear
11:35 PM 19.4 °F 6.6 °F 10.4 °F 68% 29.98 in 10.0 mi NW 12.7 mph - N/A   Clear
11:55 PM 19.4 °F 6.0 °F 10.4 °F 68% 29.98 in 10.0 mi WNW 13.8 mph - N/A   Clear